Time;durP1;ratioP1;P1;durP2;ratioP2;P2;SDS_P1;SDS_P2;PMS_P1;PMS_P2;Temp;Humidity;BMP_temperature;BMP_pressure;BME280_temperature;BME280_humidity;BME280_pressure;Samples;Min_cycle;Max_cycle;Signal;HPM_P1;HPM_P2
2023/09/15 00:00:42;;;;;;;8.05;3.42;;;;;;;;;;5032790;28;20084;-80
2023/09/15 00:03:08;;;;;;;7.88;3.40;;;;;;;;;;5033125;28;20046;-80
2023/09/15 00:05:37;;;;;;;10.23;3.33;;;;;;;;;;5032589;28;20081;-80
2023/09/15 00:08:04;;;;;;;8.32;3.45;;;;;;;;;;5032885;28;20064;-80
2023/09/15 00:10:37;;;;;;;8.65;3.35;;;;;;;;;;5032835;28;20049;-80
2023/09/15 00:13:03;;;;;;;10.60;3.88;;;;;;;;;;5033970;28;20540;-80
2023/09/15 00:15:29;;;;;;;9.75;3.92;;;;;;;;;;5034339;28;20037;-80
2023/09/15 00:17:55;;;;;;;7.70;3.40;;;;;;;;;;5016181;28;20045;-80
2023/09/15 00:20:21;;;;;;;8.55;3.72;;;;;;;;;;5038905;28;20037;-78
2023/09/15 00:22:49;;;;;;;7.60;3.70;;;;;;;;;;5038704;28;20053;-78
2023/09/15 00:25:19;;;;;;;7.53;3.20;;;;;;;;;;5022673;28;20042;-80
2023/09/15 00:27:45;;;;;;;7.30;3.35;;;;;;;;;;5016295;28;20510;-81
2023/09/15 00:30:13;;;;;;;6.60;3.40;;;;;;;;;;5031850;28;20068;-80
2023/09/15 00:32:40;;;;;;;8.35;3.63;;;;;;;;;;5015849;28;20049;-82
2023/09/15 00:35:06;;;;;;;9.60;4.00;;;;;;;;;;5031731;28;20047;-81
2023/09/15 00:37:32;;;;;;;9.60;3.45;;;;;;;;;;5033224;28;20045;-81
2023/09/15 00:39:58;;;;;;;7.65;3.42;;;;;;;;;;5033812;28;20047;-81
2023/09/15 00:42:25;;;;;;;9.00;3.47;;;;;;;;;;5033631;28;20072;-81
2023/09/15 00:44:51;;;;;;;9.00;3.38;;;;;;;;;;5032569;28;20243;-81
2023/09/15 00:47:18;;;;;;;6.90;3.28;;;;;;;;;;5016298;28;20038;-81
2023/09/15 00:49:45;;;;;;;7.47;3.38;;;;;;;;;;5016332;28;20508;-81
2023/09/15 00:52:11;;;;;;;11.63;3.60;;;;;;;;;;5016139;28;20401;-80
2023/09/15 00:54:38;;;;;;;8.75;3.50;;;;;;;;;;5031862;28;20064;-81
2023/09/15 00:57:05;;;;;;;10.05;4.00;;;;;;;;;;5033611;28;20049;-81
2023/09/15 00:59:31;;;;;;;6.88;3.47;;;;;;;;;;5015843;28;20056;-81
2023/09/15 01:01:57;;;;;;;7.80;3.72;;;;;;;;;;5015294;28;20059;-81
2023/09/15 01:04:26;;;;;;;8.57;3.30;;;;;;;;;;5015801;28;20350;-81
2023/09/15 01:06:53;;;;;;;7.32;3.20;;;;;;;;;;5015815;28;20086;-81
2023/09/15 01:09:19;;;;;;;7.38;3.72;;;;;;;;;;5033044;28;20045;-81
2023/09/15 01:11:46;;;;;;;9.38;3.45;;;;;;;;;;5015284;28;20080;-81
2023/09/15 01:14:13;;;;;;;9.48;3.42;;;;;;;;;;5033226;28;20049;-81
2023/09/15 01:16:45;;;;;;;8.27;3.30;;;;;;;;;;5015867;28;20049;-81
2023/09/15 01:19:12;;;;;;;10.95;3.60;;;;;;;;;;5015633;28;20063;-81
2023/09/15 01:21:56;;;;;;;9.93;3.58;;;;;;;;;;5029390;28;20103;-82
2023/09/15 01:24:22;;;;;;;7.55;3.70;;;;;;;;;;5011391;28;20140;-81
2023/09/15 01:27:07;;;;;;;10.50;3.78;;;;;;;;;;5012002;28;20058;-81
2023/09/15 01:29:38;;;;;;;8.95;3.38;;;;;;;;;;5013216;28;20540;-81
2023/09/15 01:32:09;;;;;;;6.60;3.45;;;;;;;;;;5013343;28;20398;-81
2023/09/15 01:34:36;;;;;;;7.38;3.65;;;;;;;;;;4995159;28;20075;-81
2023/09/15 01:37:02;;;;;;;7.10;3.05;;;;;;;;;;5011810;28;20228;-81
2023/09/15 01:39:30;;;;;;;10.25;3.40;;;;;;;;;;5013347;28;20038;-82
2023/09/15 01:41:58;;;;;;;12.15;3.58;;;;;;;;;;4995324;28;20058;-81
2023/09/15 01:44:24;;;;;;;9.90;3.72;;;;;;;;;;4995215;28;20060;-81
2023/09/15 01:46:50;;;;;;;6.40;3.10;;;;;;;;;;5013153;28;20042;-81
2023/09/15 01:49:17;;;;;;;9.20;3.78;;;;;;;;;;5012820;28;20065;-81
2023/09/15 01:51:43;;;;;;;8.30;3.70;;;;;;;;;;5011545;28;20065;-81
2023/09/15 01:54:10;;;;;;;9.27;3.30;;;;;;;;;;5014054;28;20042;-81
2023/09/15 01:56:36;;;;;;;8.90;3.50;;;;;;;;;;5014345;28;20123;-81
2023/09/15 01:59:02;;;;;;;9.40;3.85;;;;;;;;;;5015940;28;20053;-81
2023/09/15 02:01:31;;;;;;;8.73;3.80;;;;;;;;;;5015312;28;20486;-81
2023/09/15 02:03:57;;;;;;;8.68;4.05;;;;;;;;;;5015349;28;20058;-81
2023/09/15 02:06:23;;;;;;;9.30;4.05;;;;;;;;;;5015106;28;20069;-82
2023/09/15 02:08:49;;;;;;;9.93;4.40;;;;;;;;;;5015590;28;20453;-81
2023/09/15 02:11:15;;;;;;;10.52;4.30;;;;;;;;;;5017115;28;20482;-81
2023/09/15 02:13:42;;;;;;;10.05;4.82;;;;;;;;;;5015381;28;20054;-81
2023/09/15 02:16:08;;;;;;;9.23;3.90;;;;;;;;;;5016625;28;20403;-81
2023/09/15 02:18:34;;;;;;;8.15;3.80;;;;;;;;;;5015018;28;20070;-81
2023/09/15 02:21:00;;;;;;;8.77;3.70;;;;;;;;;;5016733;28;20400;-81
2023/09/15 02:23:26;;;;;;;7.55;3.70;;;;;;;;;;5032357;28;20363;-81
2023/09/15 02:25:53;;;;;;;6.22;3.70;;;;;;;;;;5036181;28;20462;-82
2023/09/15 02:28:19;;;;;;;7.43;3.50;;;;;;;;;;5036290;28;20059;-82
2023/09/15 02:30:45;;;;;;;9.68;4.13;;;;;;;;;;5034048;28;20043;-81
2023/09/15 02:33:11;;;;;;;8.60;3.67;;;;;;;;;;5033356;28;20049;-81
2023/09/15 02:35:38;;;;;;;8.35;3.95;;;;;;;;;;5034194;28;20442;-81
2023/09/15 02:38:04;;;;;;;9.48;3.95;;;;;;;;;;5035059;28;20420;-81
2023/09/15 02:40:30;;;;;;;10.63;3.55;;;;;;;;;;5018365;28;20466;-81
2023/09/15 02:42:57;;;;;;;9.20;3.90;;;;;;;;;;5035907;28;20075;-81
2023/09/15 02:45:23;;;;;;;8.55;3.75;;;;;;;;;;5034284;28;20120;-81
2023/09/15 02:47:49;;;;;;;8.38;3.65;;;;;;;;;;5034621;28;20072;-81
2023/09/15 02:50:15;;;;;;;8.68;3.63;;;;;;;;;;5034203;28;20493;-80
2023/09/15 02:52:41;;;;;;;8.23;3.80;;;;;;;;;;5034670;28;20570;-81
2023/09/15 02:55:08;;;;;;;8.23;3.88;;;;;;;;;;5035553;28;20049;-81
2023/09/15 02:57:34;;;;;;;7.20;3.67;;;;;;;;;;5036078;28;20045;-81
2023/09/15 03:00:00;;;;;;;8.82;3.67;;;;;;;;;;5035844;28;20083;-81
2023/09/15 03:02:26;;;;;;;9.50;3.70;;;;;;;;;;5034285;28;20095;-81
2023/09/15 03:04:53;;;;;;;10.02;3.88;;;;;;;;;;5033914;28;20091;-81
2023/09/15 03:07:19;;;;;;;9.52;3.75;;;;;;;;;;5034231;28;20046;-81
2023/09/15 03:09:45;;;;;;;7.32;3.70;;;;;;;;;;5033953;28;20075;-82
2023/09/15 03:12:11;;;;;;;8.50;4.05;;;;;;;;;;5034216;28;20398;-81
2023/09/15 03:14:39;;;;;;;6.93;3.80;;;;;;;;;;5033590;28;20049;-81
2023/09/15 03:17:06;;;;;;;11.73;3.83;;;;;;;;;;5034408;28;20050;-81
2023/09/15 03:19:33;;;;;;;8.00;3.85;;;;;;;;;;5035078;28;20056;-81
2023/09/15 03:21:59;;;;;;;7.05;4.07;;;;;;;;;;5033318;28;20076;-81
2023/09/15 03:24:25;;;;;;;11.38;4.45;;;;;;;;;;5034626;28;20451;-81
2023/09/15 03:26:51;;;;;;;9.00;4.30;;;;;;;;;;5033925;28;20436;-81
2023/09/15 03:29:17;;;;;;;11.35;4.40;;;;;;;;;;5017101;28;20033;-81
2023/09/15 03:31:43;;;;;;;9.50;4.63;;;;;;;;;;5034762;28;20408;-81
2023/09/15 03:34:10;;;;;;;8.93;4.47;;;;;;;;;;5034642;28;20124;-81
2023/09/15 03:36:36;;;;;;;10.68;4.72;;;;;;;;;;5034831;28;20042;-82
2023/09/15 03:39:03;;;;;;;9.77;4.30;;;;;;;;;;5032984;28;20049;-81
2023/09/15 03:41:30;;;;;;;10.10;4.75;;;;;;;;;;5034974;28;20176;-81
2023/09/15 03:43:56;;;;;;;8.85;4.80;;;;;;;;;;5034028;28;20046;-81
2023/09/15 03:46:22;;;;;;;7.35;4.80;;;;;;;;;;5034700;28;20041;-80
2023/09/15 03:48:48;;;;;;;9.98;4.78;;;;;;;;;;5050850;28;20136;-79
2023/09/15 03:51:14;;;;;;;9.60;5.10;;;;;;;;;;5048620;28;20056;-80
2023/09/15 03:53:40;;;;;;;10.32;5.00;;;;;;;;;;5033750;28;20045;-80
2023/09/15 03:56:06;;;;;;;10.60;4.82;;;;;;;;;;5034907;28;20132;-80
2023/09/15 03:58:32;;;;;;;11.82;4.80;;;;;;;;;;5033485;28;20098;-80
2023/09/15 04:00:58;;;;;;;9.95;4.80;;;;;;;;;;5034528;28;20046;-80
2023/09/15 04:03:25;;;;;;;11.02;5.13;;;;;;;;;;5034507;28;20045;-81
2023/09/15 04:05:51;;;;;;;9.35;5.50;;;;;;;;;;5034491;28;20366;-81
2023/09/15 04:08:18;;;;;;;8.50;5.50;;;;;;;;;;5033056;28;20505;-81
2023/09/15 04:10:44;;;;;;;11.77;5.60;;;;;;;;;;5016857;28;20517;-81
2023/09/15 04:13:10;;;;;;;12.80;6.25;;;;;;;;;;5032741;28;20525;-81
2023/09/15 04:15:36;;;;;;;8.90;6.10;;;;;;;;;;5032635;28;20429;-81
2023/09/15 04:18:04;;;;;;;10.43;6.32;;;;;;;;;;5016113;28;20053;-81
2023/09/15 04:20:30;;;;;;;12.75;6.65;;;;;;;;;;5032807;28;20104;-81
2023/09/15 04:22:56;;;;;;;11.30;6.82;;;;;;;;;;5031545;28;20057;-82
2023/09/15 04:25:22;;;;;;;14.35;6.47;;;;;;;;;;5034743;28;20057;-81
2023/09/15 04:27:48;;;;;;;12.82;7.80;;;;;;;;;;5032540;28;20055;-81
2023/09/15 04:30:15;;;;;;;12.18;8.05;;;;;;;;;;5033847;28;20430;-82
2023/09/15 04:32:42;;;;;;;12.57;7.95;;;;;;;;;;5015399;28;20091;-81
2023/09/15 04:35:09;;;;;;;13.30;8.52;;;;;;;;;;5015782;28;20151;-81
2023/09/15 04:37:35;;;;;;;13.23;8.52;;;;;;;;;;5032616;28;20385;-81
2023/09/15 04:40:06;;;;;;;12.00;8.32;;;;;;;;;;5016105;28;20044;-81
2023/09/15 04:42:32;;;;;;;11.23;7.50;;;;;;;;;;5033641;28;20060;-82
2023/09/15 04:44:58;;;;;;;12.88;7.72;;;;;;;;;;5033156;28;20098;-81
2023/09/15 04:47:31;;;;;;;10.45;7.60;;;;;;;;;;5031643;28;20135;-81
2023/09/15 04:49:58;;;;;;;14.38;7.07;;;;;;;;;;5032647;28;20354;-81
2023/09/15 04:52:24;;;;;;;13.02;7.22;;;;;;;;;;5033549;28;20048;-82
2023/09/15 04:54:53;;;;;;;11.65;6.88;;;;;;;;;;5033408;28;20436;-81
2023/09/15 04:57:20;;;;;;;11.35;6.50;;;;;;;;;;5033107;28;20375;-81
2023/09/15 04:59:47;;;;;;;12.90;6.68;;;;;;;;;;5031932;28;20124;-81
2023/09/15 05:02:13;;;;;;;16.85;6.60;;;;;;;;;;5032475;28;20417;-81
2023/09/15 05:04:39;;;;;;;10.10;6.90;;;;;;;;;;5033175;28;20118;-82
2023/09/15 05:07:05;;;;;;;14.85;7.10;;;;;;;;;;5015257;28;20045;-81
2023/09/15 05:09:31;;;;;;;14.63;7.18;;;;;;;;;;5032010;28;20045;-82
2023/09/15 05:11:57;;;;;;;13.15;7.43;;;;;;;;;;5015086;28;20077;-81
2023/09/15 05:14:23;;;;;;;11.95;7.65;;;;;;;;;;5028909;28;20470;-81
2023/09/15 05:16:50;;;;;;;11.07;7.15;;;;;;;;;;4995082;28;20435;-81
2023/09/15 05:19:16;;;;;;;14.40;7.70;;;;;;;;;;4979366;28;20077;-81
2023/09/15 05:21:42;;;;;;;11.98;7.50;;;;;;;;;;5002153;28;20128;-81
2023/09/15 05:24:08;;;;;;;10.70;7.20;;;;;;;;;;5012446;28;20141;-81
2023/09/15 05:26:35;;;;;;;11.48;7.00;;;;;;;;;;4979421;28;20084;-81
2023/09/15 05:29:03;;;;;;;10.93;6.85;;;;;;;;;;4994256;28;20049;-80
2023/09/15 05:31:32;;;;;;;10.23;7.10;;;;;;;;;;4994427;28;20065;-81
2023/09/15 05:33:58;;;;;;;14.43;7.22;;;;;;;;;;4994422;28;20046;-80
2023/09/15 05:36:24;;;;;;;11.70;7.07;;;;;;;;;;5011295;28;20056;-81
2023/09/15 05:38:51;;;;;;;9.15;6.85;;;;;;;;;;4995092;28;20340;-81
2023/09/15 05:41:17;;;;;;;11.13;6.63;;;;;;;;;;4995404;28;20045;-81
2023/09/15 05:43:43;;;;;;;12.30;6.50;;;;;;;;;;4995535;28;20067;-81
2023/09/15 05:46:09;;;;;;;10.65;6.10;;;;;;;;;;4979062;28;20042;-80
2023/09/15 05:48:35;;;;;;;10.43;5.90;;;;;;;;;;5013143;28;20187;-81
2023/09/15 05:51:03;;;;;;;12.63;6.28;;;;;;;;;;4995395;28;20465;-81
2023/09/15 05:53:31;;;;;;;9.77;6.90;;;;;;;;;;5011397;28;20058;-82
2023/09/15 05:55:57;;;;;;;13.88;6.22;;;;;;;;;;4995410;28;20050;-81
2023/09/15 05:58:24;;;;;;;8.00;5.88;;;;;;;;;;4994284;28;20038;-82
2023/09/15 06:00:55;;;;;;;9.82;6.18;;;;;;;;;;5012070;28;20120;-81
2023/09/15 06:03:22;;;;;;;12.00;6.47;;;;;;;;;;5011954;28;20060;-82
2023/09/15 06:05:48;;;;;;;13.32;6.70;;;;;;;;;;5012829;28;20057;-82
2023/09/15 06:08:14;;;;;;;13.63;6.90;;;;;;;;;;4995090;28;20078;-81
2023/09/15 06:10:41;;;;;;;15.55;7.13;;;;;;;;;;5012646;28;20128;-82
2023/09/15 06:13:07;;;;;;;13.18;6.43;;;;;;;;;;4978712;28;20546;-81
2023/09/15 06:15:36;;;;;;;13.27;6.90;;;;;;;;;;5012455;28;20085;-81
2023/09/15 06:18:02;;;;;;;10.93;7.13;;;;;;;;;;4995557;28;20049;-81
2023/09/15 06:20:31;;;;;;;15.68;7.82;;;;;;;;;;5012492;28;20053;-81
2023/09/15 06:22:57;;;;;;;14.13;7.75;;;;;;;;;;5024293;28;20160;-81
2023/09/15 06:25:23;;;;;;;15.05;7.68;;;;;;;;;;5031880;28;20525;-80
2023/09/15 06:27:49;;;;;;;13.32;7.45;;;;;;;;;;5030909;28;20374;-80
2023/09/15 06:30:15;;;;;;;11.93;7.57;;;;;;;;;;5030859;28;20049;-80
2023/09/15 06:32:41;;;;;;;15.23;7.65;;;;;;;;;;5030496;28;20053;-80
2023/09/15 06:35:11;;;;;;;12.73;6.90;;;;;;;;;;5030351;28;20049;-80
2023/09/15 06:37:37;;;;;;;13.32;6.93;;;;;;;;;;5031371;28;20484;-80
2023/09/15 06:40:03;;;;;;;11.48;7.22;;;;;;;;;;5032906;28;20049;-80
2023/09/15 06:42:29;;;;;;;12.82;6.95;;;;;;;;;;5033982;28;20091;-80
2023/09/15 06:44:56;;;;;;;12.25;7.00;;;;;;;;;;5034234;28;20398;-79
2023/09/15 06:47:22;;;;;;;12.38;6.57;;;;;;;;;;5035222;28;20504;-80
2023/09/15 06:49:48;;;;;;;12.82;7.10;;;;;;;;;;5035623;28;20053;-80
2023/09/15 06:52:14;;;;;;;10.30;6.32;;;;;;;;;;5035196;28;20056;-79
2023/09/15 06:54:40;;;;;;;10.43;6.40;;;;;;;;;;5035237;28;20045;-81
2023/09/15 06:57:06;;;;;;;15.15;5.60;;;;;;;;;;5034736;28;20448;-81
2023/09/15 06:59:32;;;;;;;9.95;5.75;;;;;;;;;;5034460;28;20072;-80
2023/09/15 07:01:59;;;;;;;12.68;5.63;;;;;;;;;;5017502;28;20045;-81
2023/09/15 07:04:25;;;;;;;8.40;5.18;;;;;;;;;;5034962;28;20045;-81
2023/09/15 07:06:52;;;;;;;10.80;5.45;;;;;;;;;;5035005;28;20041;-80
2023/09/15 07:09:18;;;;;;;8.95;5.13;;;;;;;;;;5036504;28;20121;-80
2023/09/15 07:11:44;;;;;;;11.02;5.25;;;;;;;;;;5043775;28;20049;-78
2023/09/15 07:14:10;;;;;;;11.00;5.20;;;;;;;;;;5047768;28;20120;-78
2023/09/15 07:16:36;;;;;;;9.55;4.82;;;;;;;;;;5037667;28;20506;-80
2023/09/15 07:19:02;;;;;;;8.82;5.30;;;;;;;;;;5019437;28;20494;-79
2023/09/15 07:21:28;;;;;;;9.00;5.30;;;;;;;;;;5035423;28;20050;-80
2023/09/15 07:23:55;;;;;;;8.90;5.38;;;;;;;;;;5009374;28;20092;-81
2023/09/15 07:26:24;;;;;;;11.65;4.88;;;;;;;;;;5013437;28;20046;-81
2023/09/15 07:28:50;;;;;;;9.95;5.32;;;;;;;;;;5012024;28;20536;-81
2023/09/15 07:31:17;;;;;;;8.95;5.35;;;;;;;;;;5012873;28;20049;-80
2023/09/15 07:33:45;;;;;;;11.00;5.18;;;;;;;;;;4997528;28;20136;-81
2023/09/15 07:36:11;;;;;;;8.20;5.10;;;;;;;;;;5015309;28;20072;-82
2023/09/15 07:38:37;;;;;;;7.97;4.70;;;;;;;;;;5014802;28;20053;-81
2023/09/15 07:41:04;;;;;;;8.25;5.35;;;;;;;;;;5013535;28;20100;-81
2023/09/15 07:43:30;;;;;;;9.15;5.40;;;;;;;;;;5013519;28;20045;-81
2023/09/15 07:45:56;;;;;;;11.55;5.03;;;;;;;;;;5013416;28;20049;-80
2023/09/15 07:48:22;;;;;;;9.18;5.13;;;;;;;;;;5013284;28;20402;-81
2023/09/15 07:50:48;;;;;;;8.93;5.28;;;;;;;;;;5013770;28;20089;-80
2023/09/15 07:53:16;;;;;;;8.70;4.50;;;;;;;;;;5013066;28;20045;-81
2023/09/15 07:55:42;;;;;;;8.60;4.70;;;;;;;;;;5014776;28;20084;-80
2023/09/15 07:58:08;;;;;;;9.02;5.00;;;;;;;;;;5014698;28;20453;-81
2023/09/15 08:00:34;;;;;;;14.13;5.57;;;;;;;;;;5013124;28;20084;-81
2023/09/15 08:03:00;;;;;;;8.95;4.93;;;;;;;;;;5012600;28;20078;-82
2023/09/15 08:05:26;;;;;;;7.32;4.20;;;;;;;;;;5012053;28;20398;-81
2023/09/15 08:07:52;;;;;;;8.48;4.35;;;;;;;;;;5012826;28;20046;-81
2023/09/15 08:10:19;;;;;;;7.72;4.85;;;;;;;;;;5013023;28;20053;-82
2023/09/15 08:12:45;;;;;;;10.55;7.50;;;;;;;;;;5013594;28;20518;-81
2023/09/15 08:15:14;;;;;;;8.18;4.20;;;;;;;;;;4996345;28;20038;-81
2023/09/15 08:17:40;;;;;;;7.00;4.00;;;;;;;;;;5013029;28;20076;-81
2023/09/15 08:20:06;;;;;;;7.78;3.97;;;;;;;;;;5012471;28;20053;-81
2023/09/15 08:22:38;;;;;;;9.77;4.40;;;;;;;;;;5013668;28;20134;-80
2023/09/15 08:25:04;;;;;;;8.02;4.10;;;;;;;;;;5013929;28;20054;-81
2023/09/15 08:27:30;;;;;;;10.40;4.15;;;;;;;;;;5001367;28;20090;-81
2023/09/15 08:29:56;;;;;;;7.82;4.00;;;;;;;;;;5033827;28;20087;-80
2023/09/15 08:32:22;;;;;;;8.43;3.83;;;;;;;;;;5015797;28;20080;-82
2023/09/15 08:34:48;;;;;;;8.63;3.78;;;;;;;;;;5033079;28;20053;-80
2023/09/15 08:37:14;;;;;;;8.82;4.00;;;;;;;;;;5032097;28;20045;-82
2023/09/15 08:39:40;;;;;;;7.55;3.50;;;;;;;;;;5032124;28;20159;-81
2023/09/15 08:42:13;;;;;;;9.80;4.00;;;;;;;;;;5031945;28;20075;-81
2023/09/15 08:44:40;;;;;;;7.80;3.58;;;;;;;;;;5032080;28;20403;-81
2023/09/15 08:47:07;;;;;;;9.30;3.40;;;;;;;;;;5031596;28;20065;-81
2023/09/15 08:49:35;;;;;;;8.65;3.13;;;;;;;;;;5033236;28;20390;-82
2023/09/15 08:52:06;;;;;;;7.47;3.30;;;;;;;;;;5032863;28;20156;-82
2023/09/15 08:54:32;;;;;;;9.18;3.08;;;;;;;;;;5031116;28;20652;-81
2023/09/15 08:56:58;;;;;;;8.13;3.40;;;;;;;;;;5031876;28;20456;-81
2023/09/15 08:59:24;;;;;;;7.95;3.45;;;;;;;;;;5031539;28;20053;-80
2023/09/15 09:01:51;;;;;;;8.85;3.30;;;;;;;;;;5031376;28;20045;-81
2023/09/15 09:04:17;;;;;;;8.13;3.25;;;;;;;;;;5031621;28;20142;-82
2023/09/15 09:06:44;;;;;;;6.85;3.00;;;;;;;;;;5031723;28;20037;-81
2023/09/15 09:09:11;;;;;;;6.45;2.67;;;;;;;;;;5015357;28;20060;-82
2023/09/15 09:11:37;;;;;;;7.07;3.33;;;;;;;;;;5031944;28;20430;-82
2023/09/15 09:14:10;;;;;;;5.22;2.60;;;;;;;;;;5015035;28;20173;-82
2023/09/15 09:16:36;;;;;;;5.90;2.70;;;;;;;;;;5014895;28;20045;-82
2023/09/15 09:19:06;;;;;;;8.10;2.83;;;;;;;;;;5031658;28;20520;-82
2023/09/15 09:21:33;;;;;;;6.20;2.70;;;;;;;;;;5030052;28;20053;-82
2023/09/15 09:23:59;;;;;;;6.57;2.70;;;;;;;;;;4992292;28;20093;-82
2023/09/15 09:26:26;;;;;;;6.18;2.50;;;;;;;;;;4993600;28;20065;-82
2023/09/15 09:28:57;;;;;;;4.97;2.72;;;;;;;;;;4992218;28;20042;-82
2023/09/15 09:31:24;;;;;;;5.75;2.50;;;;;;;;;;4993347;28;20129;-82
2023/09/15 09:33:50;;;;;;;6.18;2.90;;;;;;;;;;4991661;28;20133;-83
2023/09/15 09:36:17;;;;;;;5.63;2.60;;;;;;;;;;4975368;28;20049;-82
2023/09/15 09:38:47;;;;;;;7.65;2.65;;;;;;;;;;4992141;28;20442;-82
2023/09/15 09:41:14;;;;;;;5.53;2.67;;;;;;;;;;4991781;28;20141;-82
2023/09/15 09:43:42;;;;;;;8.55;2.92;;;;;;;;;;4992839;28;20046;-82
2023/09/15 09:46:09;;;;;;;7.35;2.60;;;;;;;;;;4993208;28;20096;-83
2023/09/15 09:48:38;;;;;;;10.18;2.88;;;;;;;;;;4991631;28;20058;-82
2023/09/15 09:51:05;;;;;;;6.72;2.85;;;;;;;;;;4991780;28;20050;-82
2023/09/15 09:53:32;;;;;;;6.20;2.95;;;;;;;;;;4991344;28;20166;-82
2023/09/15 09:55:59;;;;;;;7.63;2.90;;;;;;;;;;4991990;28;20054;-82
2023/09/15 09:58:25;;;;;;;6.90;2.63;;;;;;;;;;4993241;28;20042;-82
2023/09/15 10:00:51;;;;;;;8.52;3.10;;;;;;;;;;4991325;28;20057;-82
2023/09/15 10:03:26;;;;;;;6.82;2.90;;;;;;;;;;4992864;28;20454;-82
2023/09/15 10:05:52;;;;;;;9.38;3.28;;;;;;;;;;4991522;28;20042;-82
2023/09/15 10:08:19;;;;;;;7.90;3.05;;;;;;;;;;4975204;28;20455;-82
2023/09/15 10:10:46;;;;;;;8.63;2.92;;;;;;;;;;4991539;28;20073;-82
2023/09/15 10:13:13;;;;;;;6.80;2.83;;;;;;;;;;4991175;28;20514;-82
2023/09/15 10:15:42;;;;;;;8.73;3.47;;;;;;;;;;4996151;28;20428;-82
2023/09/15 10:18:12;;;;;;;6.97;3.45;;;;;;;;;;4995272;28;20481;-82
2023/09/15 10:20:46;;;;;;;8.82;3.28;;;;;;;;;;4996511;28;20062;-82
2023/09/15 10:23:13;;;;;;;7.35;3.53;;;;;;;;;;5018252;28;20409;-81
2023/09/15 10:25:41;;;;;;;6.22;3.40;;;;;;;;;;5036335;28;20053;-82
2023/09/15 10:28:08;;;;;;;8.60;3.65;;;;;;;;;;5035579;28;20046;-82
2023/09/15 10:30:38;;;;;;;8.35;4.07;;;;;;;;;;5034905;28;20409;-82
2023/09/15 10:33:05;;;;;;;6.78;3.70;;;;;;;;;;5037061;28;20037;-82
2023/09/15 10:35:33;;;;;;;8.77;4.30;;;;;;;;;;5042809;28;20041;-78
2023/09/15 10:38:02;;;;;;;7.90;3.78;;;;;;;;;;5053620;28;20054;-78
2023/09/15 10:40:29;;;;;;;6.47;3.60;;;;;;;;;;5042991;28;20045;-81
2023/09/15 10:42:56;;;;;;;7.30;3.50;;;;;;;;;;5034577;28;20378;-81
2023/09/15 10:45:22;;;;;;;6.47;3.20;;;;;;;;;;5018174;28;20041;-81
2023/09/15 10:48:01;;;;;;;7.43;3.22;;;;;;;;;;5034626;28;20052;-82
2023/09/15 10:50:31;;;;;;;6.55;3.28;;;;;;;;;;5018186;28;20059;-80
2023/09/15 10:53:06;;;;;;;5.72;3.33;;;;;;;;;;5034047;28;20045;-81
2023/09/15 10:55:32;;;;;;;7.28;2.92;;;;;;;;;;5033983;28;20053;-81
2023/09/15 10:57:58;;;;;;;7.55;3.25;;;;;;;;;;5033984;28;20049;-81
2023/09/15 11:00:24;;;;;;;5.45;3.00;;;;;;;;;;5033730;28;20049;-81
2023/09/15 11:02:51;;;;;;;7.30;3.45;;;;;;;;;;5034231;28;20063;-81
2023/09/15 11:05:18;;;;;;;6.05;3.10;;;;;;;;;;5033962;28;20045;-81
2023/09/15 11:07:45;;;;;;;6.50;2.90;;;;;;;;;;5034096;28;20053;-80
2023/09/15 11:10:11;;;;;;;10.50;2.88;;;;;;;;;;5033601;28;20038;-81
2023/09/15 11:12:37;;;;;;;8.23;2.80;;;;;;;;;;5033728;28;20044;-81
2023/09/15 11:15:04;;;;;;;5.97;2.78;;;;;;;;;;5035650;28;20049;-81
2023/09/15 11:17:30;;;;;;;6.65;2.80;;;;;;;;;;5034145;28;20045;-81
2023/09/15 11:19:57;;;;;;;4.97;2.58;;;;;;;;;;5035172;28;20205;-82
2023/09/15 11:22:23;;;;;;;6.95;2.92;;;;;;;;;;5016634;28;20050;-82
2023/09/15 11:24:53;;;;;;;7.28;2.65;;;;;;;;;;5035315;28;20382;-81
2023/09/15 11:27:19;;;;;;;6.28;2.80;;;;;;;;;;5032092;28;20049;-81
2023/09/15 11:29:45;;;;;;;7.35;3.10;;;;;;;;;;5034952;28;20041;-81
2023/09/15 11:32:11;;;;;;;7.75;3.08;;;;;;;;;;5033362;28;20045;-82
2023/09/15 11:34:38;;;;;;;7.10;2.60;;;;;;;;;;5033363;28;20037;-81
2023/09/15 11:37:04;;;;;;;7.10;2.50;;;;;;;;;;5016735;28;20060;-81
2023/09/15 11:39:31;;;;;;;10.85;3.13;;;;;;;;;;5034637;28;20056;-81
2023/09/15 11:41:57;;;;;;;5.53;2.55;;;;;;;;;;5034204;28;20054;-81
2023/09/15 11:44:29;;;;;;;6.30;2.45;;;;;;;;;;5032970;28;20049;-82
2023/09/15 11:46:56;;;;;;;6.00;2.60;;;;;;;;;;5017122;28;20431;-82
2023/09/15 11:49:22;;;;;;;4.95;2.70;;;;;;;;;;5033168;28;20053;-82
2023/09/15 11:51:48;;;;;;;5.38;2.60;;;;;;;;;;5034506;28;20046;-82
2023/09/15 11:54:14;;;;;;;6.40;2.88;;;;;;;;;;5034224;28;20045;-81
2023/09/15 11:56:41;;;;;;;6.45;2.47;;;;;;;;;;5031261;28;20407;-82
2023/09/15 11:59:07;;;;;;;6.40;2.80;;;;;;;;;;5033135;28;20136;-82
2023/09/15 12:01:33;;;;;;;7.45;2.78;;;;;;;;;;5034078;28;20095;-82
2023/09/15 12:04:01;;;;;;;4.78;2.70;;;;;;;;;;5032139;28;20438;-81
2023/09/15 12:06:27;;;;;;;8.52;2.90;;;;;;;;;;5032616;28;20052;-82
2023/09/15 12:08:53;;;;;;;7.32;2.60;;;;;;;;;;5033670;28;20061;-81
2023/09/15 12:11:20;;;;;;;9.25;2.75;;;;;;;;;;5032771;28;20424;-82
2023/09/15 12:13:54;;;;;;;6.53;2.67;;;;;;;;;;5031926;28;20049;-82
2023/09/15 12:16:22;;;;;;;6.63;2.60;;;;;;;;;;5032344;28;20049;-82
2023/09/15 12:18:50;;;;;;;7.50;2.50;;;;;;;;;;5033716;28;20148;-81
2023/09/15 12:21:16;;;;;;;8.55;2.92;;;;;;;;;;5033828;28;20128;-82
2023/09/15 12:23:42;;;;;;;6.20;2.33;;;;;;;;;;5013159;28;20665;-82
2023/09/15 12:26:09;;;;;;;6.28;2.80;;;;;;;;;;5013823;28;20060;-81
2023/09/15 12:28:35;;;;;;;6.50;2.38;;;;;;;;;;4994996;28;20050;-82
2023/09/15 12:31:02;;;;;;;10.27;2.63;;;;;;;;;;5013809;28;20078;-80
2023/09/15 12:33:29;;;;;;;6.53;2.47;;;;;;;;;;4994835;28;20133;-81
2023/09/15 12:35:56;;;;;;;6.97;2.50;;;;;;;;;;5013136;28;20057;-82
2023/09/15 12:38:22;;;;;;;8.40;2.85;;;;;;;;;;4995385;28;20141;-82
2023/09/15 12:40:49;;;;;;;5.80;2.60;;;;;;;;;;4995982;28;20125;-81
2023/09/15 12:43:15;;;;;;;6.55;2.58;;;;;;;;;;5013309;28;20048;-82
2023/09/15 12:45:41;;;;;;;6.25;2.65;;;;;;;;;;4994930;28;20045;-82
2023/09/15 12:48:10;;;;;;;5.50;2.60;;;;;;;;;;5011924;28;20041;-82
2023/09/15 12:50:36;;;;;;;8.68;2.80;;;;;;;;;;4995597;28;20128;-82
2023/09/15 12:53:02;;;;;;;6.60;2.70;;;;;;;;;;4995344;28;20049;-82
2023/09/15 12:55:28;;;;;;;10.00;2.72;;;;;;;;;;5013107;28;20054;-82
2023/09/15 12:57:55;;;;;;;9.23;2.85;;;;;;;;;;4995308;28;20084;-82
2023/09/15 13:00:21;;;;;;;6.40;2.78;;;;;;;;;;5013375;28;20042;-80
2023/09/15 13:02:47;;;;;;;6.25;2.70;;;;;;;;;;5011764;28;20058;-81
2023/09/15 13:05:13;;;;;;;6.95;2.63;;;;;;;;;;4995531;28;20046;-81
2023/09/15 13:07:43;;;;;;;7.13;2.88;;;;;;;;;;4995413;28;20156;-82
2023/09/15 13:10:13;;;;;;;6.82;3.03;;;;;;;;;;4995477;28;20038;-82
2023/09/15 13:12:39;;;;;;;8.07;2.75;;;;;;;;;;4995373;28;20046;-82
2023/09/15 13:15:06;;;;;;;10.35;2.85;;;;;;;;;;4995388;28;20038;-81
2023/09/15 13:17:32;;;;;;;7.68;2.70;;;;;;;;;;4995278;28;20103;-82
2023/09/15 13:19:59;;;;;;;7.50;2.60;;;;;;;;;;5012546;28;20049;-81
2023/09/15 13:22:25;;;;;;;6.10;2.50;;;;;;;;;;4999892;28;20075;-80
2023/09/15 13:24:53;;;;;;;6.78;2.78;;;;;;;;;;5031926;28;20049;-81
2023/09/15 13:27:22;;;;;;;5.38;2.30;;;;;;;;;;5031155;28;20136;-81
2023/09/15 13:29:48;;;;;;;6.25;2.70;;;;;;;;;;5031308;28;20402;-81
2023/09/15 13:32:14;;;;;;;4.63;2.40;;;;;;;;;;5032514;28;20041;-81
2023/09/15 13:34:40;;;;;;;6.07;2.70;;;;;;;;;;5014515;28;20048;-81
2023/09/15 13:37:06;;;;;;;4.80;2.58;;;;;;;;;;5032672;28;20156;-81
2023/09/15 13:39:33;;;;;;;7.22;2.70;;;;;;;;;;5032160;28;20052;-81
2023/09/15 13:41:59;;;;;;;6.82;2.40;;;;;;;;;;5032540;28;20455;-81
2023/09/15 13:44:25;;;;;;;8.55;2.58;;;;;;;;;;5032377;28;20121;-81
2023/09/15 13:46:51;;;;;;;7.65;2.58;;;;;;;;;;5014780;28;20103;-82
2023/09/15 13:49:17;;;;;;;7.88;2.65;;;;;;;;;;5028635;28;20060;-82
2023/09/15 13:51:43;;;;;;;7.00;2.63;;;;;;;;;;5030800;28;20493;-80
2023/09/15 13:54:09;;;;;;;5.90;2.65;;;;;;;;;;5030900;28;20042;-81
2023/09/15 13:56:35;;;;;;;6.90;2.67;;;;;;;;;;5032577;28;20068;-81
2023/09/15 13:59:01;;;;;;;6.38;2.47;;;;;;;;;;5031950;28;20052;-81
2023/09/15 14:01:29;;;;;;;7.30;2.67;;;;;;;;;;5040095;28;20042;-79
2023/09/15 14:03:57;;;;;;;5.13;2.40;;;;;;;;;;5034566;28;20101;-77
2023/09/15 14:06:23;;;;;;;8.98;3.00;;;;;;;;;;5042008;28;20524;-81
2023/09/15 14:08:49;;;;;;;7.13;2.70;;;;;;;;;;5032435;28;20081;-81
2023/09/15 14:11:15;;;;;;;6.70;2.50;;;;;;;;;;5030964;28;20521;-80
2023/09/15 14:13:41;;;;;;;5.05;2.53;;;;;;;;;;5031196;28;20080;-81
2023/09/15 14:16:07;;;;;;;6.22;2.63;;;;;;;;;;5032368;28;20095;-81
2023/09/15 14:18:33;;;;;;;4.50;2.30;;;;;;;;;;5030837;28;20041;-82
2023/09/15 14:20:59;;;;;;;6.03;2.60;;;;;;;;;;5013627;28;20041;-77
2023/09/15 14:23:26;;;;;;;8.50;2.60;;;;;;;;;;4992739;28;20500;-77
2023/09/15 14:25:52;;;;;;;5.72;2.60;;;;;;;;;;5011218;28;20429;-77
2023/09/15 14:28:19;;;;;;;7.32;2.90;;;;;;;;;;4994715;28;20400;-78
2023/09/15 14:30:50;;;;;;;7.55;2.92;;;;;;;;;;5012097;28;20046;-78
2023/09/15 14:33:16;;;;;;;6.53;2.85;;;;;;;;;;5011053;28;20050;-79
2023/09/15 14:35:42;;;;;;;4.90;2.60;;;;;;;;;;4994064;28;20398;-80